Time;durP1;ratioP1;P1;durP2;ratioP2;P2;SDS_P1;SDS_P2;PMS_P1;PMS_P2;Temp;Humidity;BMP_temperature;BMP_pressure;BME280_temperature;BME280_humidity;BME280_pressure;Samples;Min_cycle;Max_cycle;Signal;HPM_P1;HPM_P2
2023/08/08 00:00:13;;;;;;;9.87;5.73;;;;;;;22.70;62.01;98855.75;4912869;29;20172;-90
2023/08/08 00:02:39;;;;;;;;;;;;;;;22.84;61.93;98874.38;4886718;29;20040;-92
2023/08/08 00:05:05;;;;;;;10.52;5.35;;;;;;;22.63;61.89;98851.00;4887069;29;19974;-89
2023/08/08 00:07:31;;;;;;;9.10;5.30;;;;;;;22.79;61.72;98869.25;4899637;29;20044;-90
2023/08/08 00:09:57;;;;;;;9.73;5.17;;;;;;;22.72;61.94;98861.72;4900932;29;20564;-92
2023/08/08 00:12:23;;;;;;;10.05;4.78;;;;;;;22.76;61.87;98859.72;4912676;29;20127;-92
2023/08/08 00:14:49;;;;;;;12.57;5.20;;;;;;;22.76;61.69;98851.34;4927339;29;20510;-90
2023/08/08 00:17:15;;;;;;;11.20;5.55;;;;;;;22.64;61.80;98830.31;4892726;29;20051;-93
2023/08/08 00:19:41;;;;;;;17.57;6.43;;;;;;;22.78;61.59;98850.94;4886548;29;20043;-90
2023/08/08 00:22:07;;;;;;;13.38;4.85;;;;;;;22.60;61.83;98814.81;4904631;29;20299;-91
2023/08/08 00:24:34;;;;;;;61.05;6.88;;;;;;;22.72;61.98;98840.22;4891891;29;20046;-91
2023/08/08 00:27:00;;;;;;;19.13;5.65;;;;;;;22.77;61.64;98843.78;4915099;29;20054;-91
2023/08/08 00:29:25;;;;;;;9.27;5.20;;;;;;;22.80;61.72;98834.59;4929737;29;20036;-92
2023/08/08 00:31:51;;;;;;;145.37;10.57;;;;;;;22.73;62.02;98830.66;4918178;29;20050;-90
2023/08/08 00:34:17;;;;;;;15.65;5.55;;;;;;;22.66;61.93;98818.78;4904928;29;20414;-92
2023/08/08 00:36:43;;;;;;;11.55;5.90;;;;;;;22.64;61.99;98821.94;4877978;29;20043;-90
2023/08/08 00:39:10;;;;;;;13.18;5.88;;;;;;;22.60;62.14;98807.25;4887519;29;20514;-90
2023/08/08 00:41:36;;;;;;;9.40;5.72;;;;;;;22.74;62.39;98825.88;4909249;29;20071;-90
2023/08/08 00:44:02;;;;;;;13.30;6.27;;;;;;;22.65;62.24;98806.00;4882916;29;20525;-90
2023/08/08 00:46:28;;;;;;;12.80;7.03;;;;;;;22.74;62.15;98826.66;4891156;29;20502;-89
2023/08/08 00:48:55;;;;;;;13.67;6.50;;;;;;;22.70;62.26;98830.69;4910198;29;20038;-89
2023/08/08 00:51:21;;;;;;;20.55;6.78;;;;;;;22.70;62.69;98842.63;4906276;29;20382;-91
2023/08/08 00:53:49;;;;;;;22.02;7.93;;;;;;;22.79;62.97;98844.97;4895572;29;20036;-90
2023/08/08 00:56:17;;;;;;;21.45;7.43;;;;;;;22.67;64.60;98828.69;4921773;29;20138;-89
2023/08/08 00:58:46;;;;;;;19.48;7.68;;;;;;;22.54;65.75;98800.50;4918174;29;20513;-89
2023/08/08 01:01:13;;;;;;;18.33;8.05;;;;;;;22.41;66.61;98786.25;4902716;29;20044;-90
2023/08/08 01:03:38;;;;;;;;;;;;;;;22.34;67.32;98771.56;4918873;29;20040;-90
2023/08/08 01:06:35;;;;;;;21.75;7.35;;;;;;;22.17;67.14;98768.47;4890743;29;19923;-88
2023/08/08 01:09:13;;;;;;;8.95;6.70;;;;;;;22.03;67.87;98790.78;4915917;29;20044;-89
2023/08/08 01:11:41;;;;;;;9.88;6.93;;;;;;;22.03;67.54;98782.41;4913748;29;20048;-89
2023/08/08 01:14:09;;;;;;;9.85;6.95;;;;;;;21.98;67.79;98774.47;4917406;29;20460;-89
2023/08/08 01:16:35;;;;;;;10.88;6.82;;;;;;;21.92;68.37;98778.84;4915088;29;20130;-89
2023/08/08 01:19:01;;;;;;;10.52;6.60;;;;;;;22.03;67.82;98808.25;4898858;29;20138;-90
2023/08/08 01:21:30;;;;;;;20.15;7.25;;;;;;;21.99;68.44;98801.13;4900134;29;20052;-88
2023/08/08 01:24:17;;;;;;;14.38;6.93;;;;;;;21.99;67.28;98792.78;4900740;29;20039;-91
2023/08/08 01:26:45;;;;;;;15.60;6.95;;;;;;;21.89;67.29;98772.13;4886694;29;20040;-89
2023/08/08 01:29:11;;;;;;;24.02;6.97;;;;;;;22.04;67.27;98803.47;4899695;29;20122;-88
2023/08/08 01:31:37;;;;;;;14.63;6.63;;;;;;;22.04;67.44;98786.78;4898718;29;20072;-90
2023/08/08 01:34:04;;;;;;;13.10;6.53;;;;;;;21.99;67.04;98776.06;4901898;29;20040;-89
2023/08/08 01:37:13;;;;;;;21.02;6.97;;;;;;;22.08;67.18;98792.34;4911879;29;20040;-88
2023/08/08 01:39:40;;;;;;;14.63;6.18;;;;;;;21.91;66.72;98763.38;4856897;29;20063;-90
2023/08/08 01:42:07;;;;;;;9.55;6.90;;;;;;;22.01;67.19;98782.00;4893056;29;20111;-89
2023/08/08 01:44:34;;;;;;;9.30;6.35;;;;;;;21.93;67.17;98772.13;4901963;29;20087;-89
2023/08/08 01:47:01;;;;;;;20.65;7.35;;;;;;;21.93;67.14;98783.25;4896580;29;20048;-89
2023/08/08 01:49:26;;;;;;;9.32;6.55;;;;;;;22.01;66.79;98782.00;4882726;29;20029;-90
2023/08/08 01:51:52;;;;;;;9.70;6.33;;;;;;;21.99;66.57;98785.22;4915730;29;20409;-90
2023/08/08 01:54:19;;;;;;;11.07;6.40;;;;;;;21.93;66.50;98772.13;4920006;29;20299;-90
2023/08/08 01:56:45;;;;;;;8.82;6.43;;;;;;;21.92;66.50;98770.50;4907487;29;20043;-90
2023/08/08 01:59:12;;;;;;;13.27;6.30;;;;;;;22.01;66.62;98785.59;4888414;29;20498;-90
2023/08/08 02:01:38;;;;;;;9.65;6.57;;;;;;;21.89;66.51;98774.91;4871615;29;20096;-90
2023/08/08 02:04:05;;;;;;;19.67;7.18;;;;;;;21.89;66.92;98776.91;4888703;29;20035;-89
2023/08/08 02:06:31;;;;;;;15.15;6.35;;;;;;;21.86;66.89;98766.56;4919357;29;20048;-90
2023/08/08 02:08:58;;;;;;;24.52;6.90;;;;;;;21.98;66.92;98780.81;4909599;29;20119;-90
2023/08/08 02:11:24;;;;;;;13.10;6.97;;;;;;;21.95;66.71;98783.63;4902526;29;20426;-92
2023/08/08 02:13:50;;;;;;;10.48;6.55;;;;;;;22.04;66.18;98800.69;4928273;29;20109;-93
2023/08/08 02:16:16;;;;;;;14.88;7.05;;;;;;;21.96;66.77;98782.44;4922521;29;20143;-91
2023/08/08 02:18:42;;;;;;;12.32;6.93;;;;;;;22.03;65.98;98788.78;4890418;29;20036;-90
2023/08/08 02:21:08;;;;;;;11.85;6.45;;;;;;;22.11;66.01;98800.66;4923337;29;20083;-91
2023/08/08 02:23:34;;;;;;;14.82;7.13;;;;;;;22.01;66.16;98785.59;4898324;29;20071;-90
2023/08/08 02:26:01;;;;;;;13.75;7.10;;;;;;;22.09;67.97;98791.94;4888120;29;20063;-91
2023/08/08 02:28:28;;;;;;;11.68;7.35;;;;;;;21.96;68.04;98788.00;4871452;29;20052;-91
2023/08/08 02:30:54;;;;;;;11.65;6.93;;;;;;;21.96;68.05;98774.88;4887733;29;20051;-91
2023/08/08 02:33:20;;;;;;;11.15;7.22;;;;;;;22.05;67.78;98791.13;4902008;29;20043;-91
2023/08/08 02:35:46;;;;;;;13.15;7.47;;;;;;;21.76;67.97;98752.28;4919124;29;20413;-90
2023/08/08 02:38:13;;;;;;;13.52;6.75;;;;;;;21.67;68.14;98751.13;4894060;29;20092;-91
2023/08/08 02:40:40;;;;;;;;;;;;;;;21.91;67.82;98796.75;4849563;29;20056;-91
2023/08/08 02:43:06;;;;;;;10.35;7.25;;;;;;;21.81;68.18;98785.25;4870889;29;19927;-90
2023/08/08 02:45:32;;;;;;;8.85;7.10;;;;;;;21.70;68.22;98770.59;4894035;29;20101;-90
2023/08/08 02:47:58;;;;;;;13.77;7.63;;;;;;;21.72;68.14;98773.78;4864884;29;20078;-89
2023/08/08 02:50:24;;;;;;;15.80;6.93;;;;;;;21.77;68.12;98770.56;4864106;29;20048;-90
2023/08/08 02:52:51;;;;;;;18.98;7.55;;;;;;;21.79;67.81;98770.97;4853498;29;20071;-90
2023/08/08 02:55:20;;;;;;;9.80;7.07;;;;;;;21.76;67.56;98769.00;4891498;29;20044;-89
2023/08/08 02:57:49;;;;;;;15.70;7.07;;;;;;;21.93;67.27;98781.25;4881853;29;20040;-90
2023/08/08 03:00:15;;;;;;;14.90;7.37;;;;;;;21.91;66.76;98774.50;4881509;29;20059;-89
2023/08/08 03:02:45;;;;;;;18.52;7.32;;;;;;;22.05;66.43;98805.06;4896277;29;20423;-90
2023/08/08 03:05:11;;;;;;;10.52;7.28;;;;;;;22.09;66.48;98794.72;4880958;29;20139;-91
2023/08/08 03:07:37;;;;;;;21.70;8.05;;;;;;;22.09;66.49;98791.94;4847323;29;20033;-90
2023/08/08 03:10:04;;;;;;;18.58;9.55;;;;;;;22.21;65.91;98807.44;4833885;29;20433;-90
2023/08/08 03:12:32;;;;;;;17.38;10.88;;;;;;;22.16;65.17;98791.94;4882969;29;20055;-90
2023/08/08 03:14:59;;;;;;;21.20;11.20;;;;;;;22.35;65.90;98801.81;4845937;29;20091;-90
2023/08/08 03:17:26;;;;;;;25.80;13.18;;;;;;;22.25;65.45;98794.28;4883641;29;20060;-90
2023/08/08 03:19:52;;;;;;;29.65;14.77;;;;;;;22.31;65.57;98803.00;4874463;29;20036;-90
2023/08/08 03:22:18;;;;;;;39.88;16.60;;;;;;;22.32;65.98;98805.41;4898885;29;20036;-89
2023/08/08 03:24:45;;;;;;;41.28;20.35;;;;;;;22.24;65.76;98785.13;4919168;29;20047;-89
2023/08/08 03:27:11;;;;;;;43.00;20.00;;;;;;;22.31;64.98;98791.88;4880734;29;20136;-91
2023/08/08 03:29:37;;;;;;;29.35;17.00;;;;;;;22.35;64.85;98798.22;4902256;29;20052;-89
2023/08/08 03:32:04;;;;;;;43.20;16.80;;;;;;;22.34;64.62;98797.44;4883288;29;20048;-90
2023/08/08 03:34:31;;;;;;;40.15;16.20;;;;;;;22.31;64.23;98786.31;4871527;29;20051;-91
2023/08/08 03:36:59;;;;;;;40.60;15.82;;;;;;;22.48;64.47;98802.94;4870290;29;20051;-90
2023/08/08 03:39:26;;;;;;;28.30;12.63;;;;;;;22.40;63.98;98781.88;4885855;29;20044;-90
2023/08/08 03:41:54;;;;;;;26.95;11.40;;;;;;;22.44;63.88;98793.00;4904095;29;20052;-89
2023/08/08 03:44:20;;;;;;;30.25;11.80;;;;;;;22.44;64.57;98788.22;4893866;29;20042;-90
2023/08/08 03:46:47;;;;;;;32.03;9.57;;;;;;;22.48;63.88;98804.91;4888776;29;20044;-89
2023/08/08 03:49:13;;;;;;;17.38;7.90;;;;;;;22.51;63.59;98810.47;4884836;29;20054;-90
2023/08/08 03:51:39;;;;;;;13.77;7.60;;;;;;;22.45;63.93;98812.13;4881163;29;20402;-91
2023/08/08 03:54:05;;;;;;;20.27;7.73;;;;;;;22.59;64.33;98827.16;4891107;29;20059;-90
2023/08/08 03:56:32;;;;;;;14.95;6.93;;;;;;;22.57;65.11;98829.56;4870968;29;20860;-89
2023/08/08 03:58:58;;;;;;;20.00;7.17;;;;;;;22.63;64.06;98844.66;4904615;29;20139;-92
2023/08/08 04:01:24;;;;;;;20.95;7.40;;;;;;;22.54;64.47;98813.66;4925057;29;20304;-91
2023/08/08 04:03:50;;;;;;;21.70;6.50;;;;;;;22.58;65.75;98820.78;4896466;29;20425;-88
2023/08/08 04:06:16;;;;;;;13.00;7.13;;;;;;;22.55;66.18;98832.75;4897357;29;20304;-90
2023/08/08 04:08:57;;;;;;;11.05;6.68;;;;;;;22.39;67.13;98818.50;4924450;29;20031;-91
2023/08/08 04:11:28;;;;;;;14.85;7.03;;;;;;;22.39;67.76;98827.66;4897929;29;20048;-89
2023/08/08 04:13:53;;;;;;;15.75;7.13;;;;;;;22.49;68.66;98842.72;4913668;29;20829;-91
2023/08/08 04:16:19;;;;;;;15.57;6.80;;;;;;;22.48;68.16;98852.25;4917302;29;20048;-88
2023/08/08 04:18:45;;;;;;;14.53;7.20;;;;;;;22.29;69.93;98834.06;4904104;29;20055;-89
2023/08/08 04:21:11;;;;;;;11.73;6.93;;;;;;;22.31;70.44;98833.66;4910057;29;20042;-87
2023/08/08 04:23:37;;;;;;;15.40;6.40;;;;;;;22.27;68.56;98831.66;4905713;29;20036;-90
2023/08/08 04:26:03;;;;;;;11.67;7.70;;;;;;;22.25;71.24;98824.91;4921450;29;20079;-88
2023/08/08 04:28:32;;;;;;;16.03;7.07;;;;;;;22.34;70.71;98843.97;4898280;29;20323;-90
2023/08/08 04:30:58;;;;;;;14.45;7.45;;;;;;;22.24;70.62;98831.69;4913763;29;20137;-94
2023/08/08 04:33:24;;;;;;;11.83;7.50;;;;;;;22.25;71.33;98820.16;4916642;29;20052;-88
2023/08/08 04:35:49;;;;;;;15.13;7.30;;;;;;;22.35;71.33;98843.59;4922971;29;20032;-89
2023/08/08 04:38:16;;;;;;;11.40;7.00;;;;;;;22.35;71.74;98848.34;4891857;29;20024;-88
2023/08/08 04:40:43;;;;;;;19.65;7.22;;;;;;;22.39;72.09;98838.78;4925946;29;20051;-93
2023/08/08 04:43:09;;;;;;;20.33;7.77;;;;;;;22.40;72.03;98836.78;4934132;29;20044;-87
2023/08/08 04:45:35;;;;;;;16.73;7.97;;;;;;;22.41;72.71;98830.03;4901215;29;20079;-88
2023/08/08 04:48:07;;;;;;;14.48;7.25;;;;;;;22.50;71.55;98845.09;4900285;29;20063;-86
2023/08/08 04:50:33;;;;;;;16.67;8.32;;;;;;;22.58;72.29;98843.06;4920775;29;20122;-91
2023/08/08 04:52:59;;;;;;;10.93;8.27;;;;;;;22.58;73.72;98840.28;4901922;29;20231;-87
2023/08/08 04:55:25;;;;;;;16.98;7.47;;;;;;;22.68;72.55;98847.00;4908638;29;20051;-86
2023/08/08 04:57:50;;;;;;;14.53;7.60;;;;;;;22.73;72.79;98838.22;4899079;29;20127;-86
2023/08/08 05:00:17;;;;;;;18.33;8.60;;;;;;;22.85;72.18;98845.34;4900649;29;20328;-85
2023/08/08 05:02:43;;;;;;;;;;;;;;;22.96;71.65;98852.44;4894264;29;20127;-86
2023/08/08 05:05:09;;;;;;;15.70;8.50;;;;;;;22.89;72.07;98827.38;4922633;29;20361;-86
2023/08/08 05:07:37;;;;;;;15.47;9.00;;;;;;;23.03;71.93;98845.25;4909477;29;20119;-91
2023/08/08 05:10:03;;;;;;;12.73;8.07;;;;;;;23.13;69.98;98845.16;4924009;29;20126;-91
2023/08/08 05:12:29;;;;;;;;;;;;;;;23.20;69.68;98859.06;4906749;29;20040;-83
2023/08/08 05:14:55;;;;;;;18.95;9.23;;;;;;;23.15;69.95;98839.97;4923917;29;20025;-90
2023/08/08 05:17:21;;;;;;;18.75;9.27;;;;;;;23.05;70.25;98835.28;4935242;29;20040;-85
2023/08/08 05:19:47;;;;;;;12.43;10.17;;;;;;;23.00;68.75;98830.13;4917534;29;20039;-87
2023/08/08 05:22:13;;;;;;;21.73;10.60;;;;;;;23.05;67.74;98845.66;4936421;29;20351;-87
2023/08/08 05:24:39;;;;;;;24.87;12.17;;;;;;;23.05;70.79;98837.28;4925212;29;20300;-88
2023/08/08 05:27:05;;;;;;;20.60;11.85;;;;;;;23.08;70.62;98840.03;4869064;29;20059;-88
2023/08/08 05:29:31;;;;;;;21.55;11.70;;;;;;;23.06;70.81;98825.72;4892398;29;20063;-87
2023/08/08 05:31:57;;;;;;;20.88;11.45;;;;;;;23.18;70.79;98843.97;4921577;29;20457;-86
2023/08/08 05:34:26;;;;;;;23.67;10.50;;;;;;;23.26;69.40;98850.25;4909497;29;20114;-88
2023/08/08 05:36:52;;;;;;;20.30;11.23;;;;;;;23.27;69.25;98851.84;4929026;29;20048;-87
2023/08/08 05:39:18;;;;;;;18.03;10.17;;;;;;;23.31;69.48;98853.41;4927415;29;20139;-86
2023/08/08 05:41:43;;;;;;;22.00;10.77;;;;;;;23.20;70.97;98844.31;4899633;29;20050;-85
2023/08/08 05:44:09;;;;;;;19.57;10.20;;;;;;;23.09;69.31;98847.19;4926777;29;20398;-87
2023/08/08 05:46:35;;;;;;;18.55;10.98;;;;;;;23.15;70.71;98862.28;4880431;29;20059;-86
2023/08/08 05:49:01;;;;;;;20.70;10.73;;;;;;;23.00;70.06;98846.06;4910607;29;20040;-85
2023/08/08 05:51:27;;;;;;;20.42;11.68;;;;;;;22.95;71.19;98842.50;4894830;29;20035;-85
2023/08/08 05:53:53;;;;;;;24.17;11.67;;;;;;;23.05;71.66;98849.22;4921816;29;20531;-85
2023/08/08 05:56:19;;;;;;;29.57;12.30;;;;;;;23.12;71.48;98846.38;4937299;29;20102;-86
2023/08/08 05:58:45;;;;;;;38.70;12.07;;;;;;;23.18;71.15;98841.97;4934894;29;20445;-85
2023/08/08 06:01:12;;;;;;;19.23;10.67;;;;;;;23.30;70.04;98860.19;4929495;29;20296;-88
2023/08/08 06:03:38;;;;;;;28.23;10.98;;;;;;;23.43;70.40;98854.91;4905962;29;20350;-90
2023/08/08 06:06:04;;;;;;;23.77;9.73;;;;;;;23.56;68.87;98856.00;4935792;29;20694;-86
2023/08/08 06:08:31;;;;;;;20.63;9.15;;;;;;;23.76;68.30;98870.19;4943938;29;20046;-86
2023/08/08 06:10:58;;;;;;;29.05;9.45;;;;;;;23.71;66.71;98847.50;4966478;29;20039;-89
2023/08/08 06:13:25;;;;;;;25.20;10.05;;;;;;;23.86;68.13;98860.13;4917827;29;20155;-85
2023/08/08 06:15:51;;;;;;;19.10;8.80;;;;;;;23.80;66.45;98839.47;4907988;29;20056;-84
2023/08/08 06:18:17;;;;;;;20.23;8.73;;;;;;;23.92;65.33;98852.91;4918783;29;20039;-91
2023/08/08 06:20:43;;;;;;;21.58;8.70;;;;;;;24.00;65.83;98859.97;4930972;29;20287;-89
2023/08/08 06:23:10;;;;;;;16.27;8.80;;;;;;;24.14;66.27;98862.66;4941850;29;20102;-91
2023/08/08 06:25:38;;;;;;;16.55;8.57;;;;;;;24.02;66.09;98840.81;4899954;29;20052;-91
2023/08/08 06:28:06;;;;;;;19.10;9.18;;;;;;;24.00;65.67;98846.03;4906164;29;20075;-87
2023/08/08 06:30:33;;;;;;;19.52;9.02;;;;;;;24.13;64.37;98854.66;4940786;29;20055;-89
2023/08/08 06:32:59;;;;;;;18.50;8.45;;;;;;;24.33;64.83;98875.19;4922887;29;20043;-89
2023/08/08 06:35:25;;;;;;;26.13;9.10;;;;;;;24.33;63.95;98863.22;4935419;29;20036;-88
2023/08/08 06:37:51;;;;;;;22.67;8.65;;;;;;;24.28;64.92;98852.53;4913668;29;20151;-87
2023/08/08 06:40:17;;;;;;;15.25;8.55;;;;;;;24.36;63.20;98856.81;4933115;29;20036;-87
2023/08/08 06:42:43;;;;;;;29.90;9.98;;;;;;;24.49;63.71;98865.47;4924906;29;20075;-90
2023/08/08 06:45:09;;;;;;;16.33;7.97;;;;;;;24.49;63.46;98862.66;4925026;29;20056;-91
2023/08/08 06:47:35;;;;;;;;;;;;;;;24.61;62.41;98876.88;4925202;29;20418;-86
2023/08/08 06:50:01;;;;;;;18.05;7.78;;;;;;;24.63;63.48;98859.69;4897413;29;19926;-90
2023/08/08 06:52:27;;;;;;;25.08;9.05;;;;;;;24.73;62.41;98869.94;4920556;29;20040;-88
2023/08/08 06:54:53;;;;;;;17.30;10.00;;;;;;;24.76;63.24;98859.91;4903872;29;20040;-88
2023/08/08 06:57:19;;;;;;;18.52;9.85;;;;;;;24.89;61.94;98869.31;4957013;29;20568;-89
2023/08/08 06:59:50;;;;;;;27.58;10.40;;;;;;;25.30;61.45;98873.97;4901813;29;1409830;-89
2023/08/08 07:02:17;;;;;;;17.38;8.30;;;;;;;25.12;59.01;98871.44;4909972;29;20060;-85
2023/08/08 07:04:43;;;;;;;19.35;8.32;;;;;;;25.00;59.96;98847.63;4945192;29;20067;-86
2023/08/08 07:07:10;;;;;;;18.23;9.23;;;;;;;25.21;59.56;98860.50;4918824;29;20132;-88
2023/08/08 07:09:37;;;;;;;18.88;8.73;;;;;;;25.25;60.06;98852.84;4956318;29;20413;-88
2023/08/08 07:12:07;;;;;;;25.75;9.30;;;;;;;25.16;60.85;98849.00;4922673;29;20135;-88
2023/08/08 07:14:33;;;;;;;22.98;9.30;;;;;;;24.97;59.73;98851.25;4939733;29;20056;-88
2023/08/08 07:16:59;;;;;;;32.50;9.07;;;;;;;24.97;60.71;98887.59;4941225;29;20055;-90
2023/08/08 07:19:25;;;;;;;13.57;7.07;;;;;;;24.95;60.08;98878.84;4938726;29;20043;-88
2023/08/08 07:21:51;;;;;;;16.63;7.88;;;;;;;24.99;60.43;98865.59;4930567;29;20528;-87
2023/08/08 07:24:18;;;;;;;16.55;7.20;;;;;;;25.06;60.90;98873.88;4919601;29;20131;-86
2023/08/08 07:26:44;;;;;;;14.95;7.38;;;;;;;24.93;61.09;98877.66;4902194;29;20040;-87
2023/08/08 07:29:10;;;;;;;22.70;8.02;;;;;;;25.28;60.37;98902.34;4887276;29;20260;-88
2023/08/08 07:31:37;;;;;;;16.40;7.03;;;;;;;25.50;59.06;98896.44;4910065;29;20039;-88
2023/08/08 07:34:06;;;;;;;22.98;7.82;;;;;;;25.43;59.44;98874.97;4924384;29;20047;-89
2023/08/08 07:36:32;;;;;;;13.77;7.75;;;;;;;25.38;60.47;98878.22;4925660;29;20055;-89
2023/08/08 07:38:59;;;;;;;28.35;8.13;;;;;;;25.29;60.48;98873.16;4944255;29;20068;-90
2023/08/08 07:41:29;;;;;;;20.05;9.02;;;;;;;25.29;60.57;98864.75;4923935;29;20051;-89
2023/08/08 07:43:55;;;;;;;12.30;8.18;;;;;;;25.50;60.41;98885.25;4907228;29;20067;-88
2023/08/08 07:46:22;;;;;;;28.45;8.63;;;;;;;25.50;59.19;98885.25;4887287;29;20044;-89
2023/08/08 07:48:48;;;;;;;12.00;7.38;;;;;;;25.48;58.81;98870.88;4920175;29;20525;-91
2023/08/08 07:51:14;;;;;;;16.50;8.07;;;;;;;25.45;59.29;98878.09;4905133;29;20039;-90
2023/08/08 07:53:40;;;;;;;17.33;7.82;;;;;;;25.41;59.08;98885.00;4901692;29;20450;-87
2023/08/08 07:56:07;;;;;;;27.55;9.38;;;;;;;25.28;59.98;98877.19;4930783;29;20087;-86
2023/08/08 07:58:33;;;;;;;17.30;8.55;;;;;;;25.34;59.89;98897.09;4893407;29;20203;-86
2023/08/08 08:01:00;;;;;;;33.25;9.02;;;;;;;25.29;61.11;98897.53;4926177;29;20131;-86
2023/08/08 08:03:27;;;;;;;15.20;8.10;;;;;;;25.25;61.57;98880.03;4896680;29;20119;-87
2023/08/08 08:05:53;;;;;;;29.92;9.63;;;;;;;25.27;60.48;98894.41;4923990;29;20528;-88
2023/08/08 08:08:21;;;;;;;12.23;7.78;;;;;;;25.30;61.36;98905.53;4929646;29;20410;-89
2023/08/08 08:10:48;;;;;;;;;;;;;;;25.28;60.71;98899.56;4914828;29;20043;-87
2023/08/08 08:13:15;;;;;;;13.30;7.95;;;;;;;25.22;61.00;98892.84;4909926;29;20033;-86
2023/08/08 08:15:41;;;;;;;15.43;8.93;;;;;;;25.20;61.35;98884.09;4934634;29;20044;-87
2023/08/08 08:18:07;;;;;;;39.08;9.18;;;;;;;25.28;60.42;98898.78;4933191;29;20111;-87
2023/08/08 08:20:33;;;;;;;15.10;8.38;;;;;;;25.24;60.31;98895.25;4930515;29;20036;-86
2023/08/08 08:22:59;;;;;;;;;;;;;;;25.28;62.86;98912.75;4927078;29;20092;-88
2023/08/08 08:25:25;;;;;;;40.75;11.15;;;;;;;25.01;65.60;98893.16;4931456;29;19907;-91
2023/08/08 08:27:51;;;;;;;24.33;11.20;;;;;;;24.90;67.08;98893.28;4904997;29;20047;-89
2023/08/08 08:30:19;;;;;;;27.52;11.20;;;;;;;25.00;67.23;98914.72;4895113;29;20068;-90
2023/08/08 08:32:56;;;;;;;30.25;9.65;;;;;;;25.06;66.42;98876.66;4929000;29;20072;-89
2023/08/08 08:35:28;;;;;;;22.92;11.48;;;;;;;25.51;67.19;98907.19;4914513;29;20145;-90
2023/08/08 08:37:54;;;;;;;19.85;12.68;;;;;;;25.61;66.89;98913.06;4911369;29;20091;-91
2023/08/08 08:40:21;;;;;;;32.25;13.25;;;;;;;25.38;66.93;98889.41;4872811;29;20048;-89
2023/08/08 08:42:47;;;;;;;;;;;;;;;25.67;66.99;98930.97;4915034;29;20046;-87
2023/08/08 08:45:15;;;;;;;24.25;11.63;;;;;;;25.61;66.40;98899.06;4928128;29;19930;-88
2023/08/08 08:47:45;;;;;;;29.85;12.30;;;;;;;25.51;64.09;98893.22;4929178;29;20134;-88
2023/08/08 08:50:14;;;;;;;20.65;11.77;;;;;;;25.78;64.90;98923.16;4909368;29;20115;-86
2023/08/08 08:52:40;;;;;;;29.30;11.85;;;;;;;26.08;64.29;98929.88;4909252;29;20048;-89
2023/08/08 08:55:09;;;;;;;29.35;11.98;;;;;;;25.78;61.35;98904.34;4870314;29;20080;-87
2023/08/08 08:57:37;;;;;;;20.40;9.68;;;;;;;26.37;60.91;98919.75;4858960;29;20057;-86
2023/08/08 09:00:05;;;;;;;24.92;11.23;;;;;;;26.30;61.83;98917.06;4867227;29;20057;-89
2023/08/08 09:02:38;;;;;;;25.90;11.65;;;;;;;26.23;60.76;98931.22;4870446;29;20057;-90
2023/08/08 09:05:05;;;;;;;32.95;12.80;;;;;;;26.27;61.57;98925.56;4870265;29;20495;-87
2023/08/08 09:07:36;;;;;;;27.77;12.20;;;;;;;26.57;59.18;98921.81;4866646;29;20494;-87
2023/08/08 09:10:05;;;;;;;33.50;12.15;;;;;;;26.81;58.47;98926.09;4839036;29;20568;-83
2023/08/08 09:12:31;;;;;;;23.13;10.57;;;;;;;26.67;58.05;98909.56;4847763;29;20493;-86
2023/08/08 09:14:58;;;;;;;;;;;;;;;26.99;58.23;98927.72;4876142;29;20055;-88
2023/08/08 09:17:28;;;;;;;20.98;10.27;;;;;;;26.91;57.21;98918.69;4867287;29;19936;-86
2023/08/08 09:19:55;;;;;;;21.75;11.85;;;;;;;26.96;57.53;98942.66;4870793;29;20041;-89
2023/08/08 09:22:21;;;;;;;;;;;;;;;26.97;57.81;98941.41;4864806;29;20118;-87
2023/08/08 09:24:48;;;;;;;20.45;10.75;;;;;;;26.82;55.65;98912.84;4873120;29;19923;-90
2023/08/08 09:27:14;;;;;;;30.33;13.02;;;;;;;27.17;55.76;98928.94;4858938;29;20132;-86
2023/08/08 09:29:41;;;;;;;19.63;10.45;;;;;;;27.25;56.33;98915.56;4891216;29;20052;-87
2023/08/08 09:32:10;;;;;;;27.38;11.75;;;;;;;27.48;55.96;98931.44;4893033;29;20474;-87
2023/08/08 09:34:36;;;;;;;28.38;11.23;;;;;;;27.45;53.38;98939.97;4886187;29;20060;-88
2023/08/08 09:37:03;;;;;;;23.33;10.88;;;;;;;27.60;54.61;98942.00;4890411;29;20049;-90
2023/08/08 09:39:32;;;;;;;20.33;11.05;;;;;;;27.53;52.95;98939.38;4910481;29;20451;-86
2023/08/08 09:41:58;;;;;;;20.98;11.13;;;;;;;27.61;56.08;98940.75;4896727;29;20494;-86
2023/08/08 09:44:28;;;;;;;19.05;10.80;;;;;;;27.45;54.33;98923.94;4895562;29;20060;-87
2023/08/08 09:46:56;;;;;;;30.15;12.48;;;;;;;27.38;53.78;98940.91;4923112;29;20051;-88
2023/08/08 09:49:23;;;;;;;30.02;13.05;;;;;;;27.24;54.55;98916.78;4920106;29;20032;-89
2023/08/08 09:51:49;;;;;;;36.65;13.68;;;;;;;27.24;54.28;98918.78;4913256;29;20043;-84
2023/08/08 09:54:16;;;;;;;;;;;;;;;27.29;52.98;98938.72;4911735;29;20066;-88
2023/08/08 09:56:43;;;;;;;24.77;12.82;;;;;;;27.22;54.37;98938.88;4909337;29;20364;-86
2023/08/08 09:59:11;;;;;;;41.95;13.07;;;;;;;27.32;56.20;98946.28;4894109;29;20059;-84
2023/08/08 10:01:41;;;;;;;36.00;12.45;;;;;;;27.41;56.82;98946.44;4936509;29;20091;-84
2023/08/08 10:04:08;;;;;;;31.05;12.77;;;;;;;27.46;56.36;98945.16;4929041;29;20054;-84
2023/08/08 10:06:35;;;;;;;;;;;;;;;27.47;56.27;98955.16;4917438;29;20052;-86
2023/08/08 10:09:03;;;;;;;38.70;12.50;;;;;;;27.43;55.23;98953.66;4921094;29;19930;-88
2023/08/08 10:11:32;;;;;;;37.15;12.63;;;;;;;27.56;56.29;98948.94;4935476;29;20126;-87
2023/08/08 10:14:02;;;;;;;36.80;13.05;;;;;;;27.55;55.87;98956.56;4936042;29;20044;-88
2023/08/08 10:16:31;;;;;;;32.13;12.18;;;;;;;27.41;56.63;98940.81;4926287;29;20048;-88
2023/08/08 10:19:02;;;;;;;31.98;11.40;;;;;;;27.53;57.66;98953.41;4887171;29;20039;-89
2023/08/08 10:21:37;;;;;;;28.02;11.45;;;;;;;27.63;58.80;98946.75;4907853;29;20049;-87
2023/08/08 10:24:08;;;;;;;20.67;11.70;;;;;;;27.77;54.94;98956.88;4917348;29;20040;-88
2023/08/08 10:26:34;;;;;;;39.42;11.85;;;;;;;27.73;54.99;98938.50;4943434;29;20044;-88
2023/08/08 10:29:01;;;;;;;45.17;13.48;;;;;;;27.83;58.89;98937.47;4914242;29;20059;-89
2023/08/08 10:31:35;;;;;;;30.67;11.50;;;;;;;27.96;55.57;98941.16;4939053;29;20098;-85
2023/08/08 10:34:06;;;;;;;28.02;12.10;;;;;;;27.96;55.85;98937.56;4893588;29;20044;-88
2023/08/08 10:36:50;;;;;;;39.95;12.95;;;;;;;27.97;55.13;98933.50;4915811;29;20044;-88
2023/08/08 10:39:18;;;;;;;29.85;13.00;;;;;;;27.92;55.78;98951.69;4887147;29;20167;-88
2023/08/08 10:42:09;;;;;;;30.00;13.85;;;;;;;27.93;54.96;98952.50;4894968;29;20145;-87
2023/08/08 10:44:42;;;;;;;28.05;13.70;;;;;;;27.90;55.24;98940.09;4893012;29;20056;-88
2023/08/08 10:47:11;;;;;;;36.53;12.43;;;;;;;28.09;55.48;98961.69;4877200;29;20045;-87
2023/08/08 10:49:42;;;;;;;20.58;12.63;;;;;;;28.18;55.30;98963.88;4886141;29;20044;-87
2023/08/08 10:52:14;;;;;;;31.60;12.43;;;;;;;28.20;55.42;98967.03;4882703;29;20048;-87
2023/08/08 10:54:53;;;;;;;28.98;13.15;;;;;;;28.17;54.24;98962.28;4875270;29;20559;-88
2023/08/08 10:57:23;;;;;;;34.03;12.52;;;;;;;28.06;53.07;98965.38;4887291;29;20052;-88
2023/08/08 10:59:50;;;;;;;36.28;15.18;;;;;;;27.82;55.12;98973.22;4879237;29;20094;-88
2023/08/08 11:02:18;;;;;;;26.85;13.35;;;;;;;27.76;56.53;98972.16;4863675;29;20112;-88
2023/08/08 11:04:44;;;;;;;40.70;14.68;;;;;;;27.60;56.50;98958.06;4890886;29;20419;-88
2023/08/08 11:07:11;;;;;;;23.65;14.05;;;;;;;27.51;55.60;98969.09;4883817;29;20052;-90
2023/08/08 11:09:37;;;;;;;46.35;13.18;;;;;;;27.43;56.46;98948.03;4849925;29;20175;-87
2023/08/08 11:12:03;;;;;;;33.08;13.48;;;;;;;27.55;56.38;98975.41;4889476;29;20080;-87
2023/08/08 11:14:33;;;;;;;76.63;13.88;;;;;;;27.52;54.99;98976.31;4880971;29;20495;-89
2023/08/08 11:17:00;;;;;;;65.85;14.73;;;;;;;27.45;55.28;98974.47;4879420;29;20123;-90
2023/08/08 11:19:26;;;;;;;;;;;;;;;27.46;55.24;98978.84;4911036;29;20068;-87
2023/08/08 11:21:51;;;;;;;;;;;;;;;27.35;54.52;98987.50;4905658;29;19934;-87
2023/08/08 11:24:17;;;;;;;;;;;;;;;27.29;56.82;98989.25;4894396;29;19923;-89
2023/08/08 11:26:47;;;;;;;41.15;12.98;;;;;;;27.17;57.35;98979.47;4898677;29;19923;-89